Time;durP1;ratioP1;P1;durP2;ratioP2;P2;SDS_P1;SDS_P2;PMS_P1;PMS_P2;Temp;Humidity;BMP_temperature;BMP_pressure;BME280_temperature;BME280_humidity;BME280_pressure;Samples;Min_cycle;Max_cycle;Signal;HPM_P1;HPM_P2
2023/10/14 00:02:21;;;;;;;6.05;0.80;;;14.20;99.90;;;;;;5112852;28;20043;-73
2023/10/14 00:04:46;;;;;;;8.93;1.05;;;14.00;99.90;;;;;;5111620;28;20032;-73
2023/10/14 00:07:17;;;;;;;7.88;1.55;;;14.00;99.90;;;;;;5111479;28;20465;-73
2023/10/14 00:09:43;;;;;;;4.60;1.40;;;14.00;99.90;;;;;;5111947;28;20091;-73
2023/10/14 00:12:13;;;;;;;4.13;0.80;;;13.90;99.90;;;;;;5094244;28;20044;-73
2023/10/14 00:14:43;;;;;;;7.97;1.20;;;14.00;99.90;;;;;;5111743;28;20051;-73
2023/10/14 00:17:18;;;;;;;4.75;1.45;;;13.90;99.90;;;;;;5111457;28;20045;-73
2023/10/14 00:19:49;;;;;;;4.47;1.25;;;13.80;99.90;;;;;;5112427;28;20563;-73
2023/10/14 00:22:18;;;;;;;10.80;1.10;;;13.60;99.90;;;;;;5112422;28;20036;-73
2023/10/14 00:24:47;;;;;;;6.80;1.33;;;13.60;99.90;;;;;;5112785;28;20039;-73
2023/10/14 00:27:13;;;;;;;8.73;1.60;;;13.50;99.90;;;;;;5112586;28;20507;-73
2023/10/14 00:29:39;;;;;;;7.53;2.50;;;13.40;99.90;;;;;;5112366;28;20050;-73
2023/10/14 00:32:04;;;;;;;8.27;1.30;;;13.40;99.90;;;;;;5110865;28;20039;-73
2023/10/14 00:34:30;;;;;;;4.28;0.90;;;13.40;99.90;;;;;;5094158;28;20051;-73
2023/10/14 00:36:56;;;;;;;3.90;1.15;;;13.30;99.90;;;;;;5112678;28;20042;-73
2023/10/14 00:39:28;;;;;;;7.43;1.35;;;13.30;99.90;;;;;;5111077;28;20494;-73
2023/10/14 00:41:55;;;;;;;9.02;1.20;;;13.30;99.90;;;;;;5110909;28;20085;-73
2023/10/14 00:44:26;;;;;;;9.85;2.28;;;13.20;99.90;;;;;;5111276;28;20046;-72
2023/10/14 00:46:53;;;;;;;17.85;3.08;;;13.20;99.90;;;;;;5111632;28;20047;-73
2023/10/14 00:49:31;;;;;;;6.80;1.60;;;13.20;99.90;;;;;;5093953;28;20040;-73
2023/10/14 00:51:59;;;;;;;15.65;2.40;;;13.10;99.90;;;;;;5112164;28;20420;-73
2023/10/14 00:59:50;;;;;;;10.82;1.30;;;13.00;99.90;;;;;;5112358;28;20043;-73
2023/10/14 01:02:29;;;;;;;10.25;1.55;;;13.00;99.90;;;;;;5111818;28;20035;-73
2023/10/14 01:04:54;;;;;;;4.35;1.52;;;12.90;99.90;;;;;;5112153;28;20043;-73
2023/10/14 01:07:21;;;;;;;12.32;2.55;;;12.80;99.90;;;;;;5111861;28;20036;-73
2023/10/14 01:14:52;;;;;;;5.82;1.58;;;12.70;99.90;;;;;;5112179;28;20051;-73
2023/10/14 01:17:29;;;;;;;5.47;1.30;;;12.70;99.90;;;;;;5112121;28;20118;-73
2023/10/14 01:20:04;;;;;;;9.98;1.80;;;12.60;99.90;;;;;;5111696;28;20470;-72
2023/10/14 01:22:30;;;;;;;4.75;1.60;;;12.60;99.90;;;;;;5110647;28;20422;-72
2023/10/14 01:24:55;;;;;;;6.35;1.30;;;12.50;99.90;;;;;;5112187;28;20101;-72
2023/10/14 01:27:25;;;;;;;9.20;1.60;;;12.50;99.90;;;;;;5112001;28;20035;-72
2023/10/14 01:29:51;;;;;;;16.77;2.47;;;12.50;99.90;;;;;;5111832;28;20055;-72
2023/10/14 01:35:14;;;;;;;10.00;1.52;;;12.40;99.90;;;;;;5110582;28;20043;-72
2023/10/14 01:37:40;;;;;;;11.35;2.53;;;12.40;99.90;;;;;;5110474;28;20517;-72
2023/10/14 01:42:48;;;;;;;6.57;1.63;;;12.30;99.90;;;;;;5110382;28;20043;-73
2023/10/14 01:45:20;;;;;;;15.50;2.75;;;12.20;99.90;;;;;;5110478;28;20126;-73
2023/10/14 01:47:53;;;;;;;9.00;2.13;;;12.20;99.90;;;;;;5110421;28;20035;-72
2023/10/14 01:50:19;;;;;;;9.15;1.70;;;12.00;99.90;;;;;;5109539;28;20040;-72
2023/10/14 01:52:45;;;;;;;7.18;1.83;;;12.10;99.90;;;;;;5111562;28;20121;-72
2023/10/14 01:55:12;;;;;;;9.23;1.95;;;12.00;99.90;;;;;;5110531;28;20124;-72
2023/10/14 01:57:38;;;;;;;10.45;2.33;;;12.00;99.90;;;;;;5112749;28;20545;-72
2023/10/14 02:00:24;;;;;;;10.68;1.98;;;11.90;99.90;;;;;;5113841;28;20118;-72
2023/10/14 02:02:59;;;;;;;8.10;1.48;;;11.90;99.90;;;;;;5115281;28;20495;-72
2023/10/14 02:05:26;;;;;;;9.23;2.50;;;11.80;99.90;;;;;;5115474;28;20035;-72
2023/10/14 02:07:52;;;;;;;14.20;2.33;;;11.80;99.90;;;;;;5114014;28;20032;-72
2023/10/14 02:10:18;;;;;;;8.43;1.65;;;11.70;99.90;;;;;;5115242;28;20406;-72
2023/10/14 02:12:44;;;;;;;11.32;1.67;;;11.70;99.90;;;;;;5115110;28;20031;-72
2023/10/14 02:15:10;;;;;;;10.80;2.00;;;11.60;99.90;;;;;;5114715;28;20051;-72
2023/10/14 02:17:36;;;;;;;5.90;1.63;;;11.60;99.90;;;;;;5093401;28;20048;-72
2023/10/14 02:20:19;;;;;;;10.77;2.35;;;11.60;99.90;;;;;;5091870;28;20043;-72
2023/10/14 02:22:46;;;;;;;;;;;11.60;99.90;;;;;;5092735;28;20043;-72
2023/10/14 02:25:15;;;;;;;9.65;1.80;;;11.50;99.90;;;;;;5117863;22;19915;-75
2023/10/14 02:27:44;;;;;;;9.57;2.08;;;11.40;99.90;;;;;;5074495;28;20048;-74
2023/10/14 02:30:11;;;;;;;8.27;1.77;;;11.40;99.90;;;;;;5074154;28;20100;-74
2023/10/14 02:32:36;;;;;;;7.57;2.08;;;11.40;99.90;;;;;;5076520;28;20454;-74
2023/10/14 02:35:02;;;;;;;7.25;1.38;;;11.40;99.90;;;;;;5094710;28;20047;-74
2023/10/14 02:37:27;;;;;;;10.23;2.78;;;11.40;99.90;;;;;;5091421;28;20047;-74
2023/10/14 02:39:53;;;;;;;11.40;1.85;;;11.30;99.90;;;;;;5092176;28;20082;-74
2023/10/14 02:42:18;;;;;;;7.00;1.20;;;11.40;99.90;;;;;;5094220;28;20040;-74
2023/10/14 02:44:45;;;;;;;5.10;1.58;;;11.30;99.90;;;;;;5093403;28;20024;-74
2023/10/14 02:47:12;;;;;;;7.68;2.08;;;11.20;99.90;;;;;;5076124;28;20044;-74
2023/10/14 02:49:40;;;;;;;6.88;1.63;;;11.30;99.90;;;;;;5092968;28;20048;-74
2023/10/14 02:52:10;;;;;;;14.85;2.17;;;11.30;99.90;;;;;;5075925;28;20101;-74
2023/10/14 02:54:42;;;;;;;13.65;2.88;;;11.30;99.90;;;;;;5093290;28;20044;-74
2023/10/14 02:59:46;;;;;;;9.75;1.95;;;11.30;99.90;;;;;;5092561;28;20039;-76
2023/10/14 03:04:55;;;;;;;15.05;3.00;;;11.20;99.90;;;;;;5092015;28;20048;-76
2023/10/14 03:12:40;;;;;;;11.68;1.85;;;11.10;99.90;;;;;;5093437;28;20051;-76
2023/10/14 03:15:19;;;;;;;7.97;1.70;;;11.10;99.90;;;;;;5091970;28;20036;-77
2023/10/14 03:17:55;;;;;;;8.68;2.20;;;11.10;99.90;;;;;;5092313;28;20040;-76
2023/10/14 03:22:53;;;;;;;7.10;1.67;;;11.00;99.90;;;;;;5092155;28;20048;-76
2023/10/14 03:25:23;;;;;;;11.55;2.10;;;11.00;99.90;;;;;;5074818;28;20119;-76
2023/10/14 03:27:50;;;;;;;10.80;2.45;;;11.00;99.90;;;;;;5092054;28;20487;-76
2023/10/14 03:30:17;;;;;;;11.60;1.73;;;10.90;99.90;;;;;;5091532;28;20048;-76
2023/10/14 03:32:42;;;;;;;9.07;2.05;;;10.90;99.90;;;;;;5093238;28;20035;-76
2023/10/14 03:35:13;;;;;;;13.88;2.95;;;10.90;99.90;;;;;;5092536;28;20043;-77
2023/10/14 03:37:52;;;;;;;8.98;2.08;;;10.90;99.90;;;;;;5091214;28;20040;-77
2023/10/14 03:41:03;;;;;;;9.13;1.77;;;10.90;99.90;;;;;;5090867;28;20043;-74
2023/10/14 03:43:09;;;;;;;8.18;1.75;;;10.90;99.90;;;;;;5079788;28;20048;-74
2023/10/14 03:45:48;;;;;;;8.75;2.17;;;10.80;99.90;;;;;;5055083;28;20483;-74
2023/10/14 03:48:14;;;;;;;11.25;3.08;;;10.90;99.90;;;;;;5055171;28;20048;-74
2023/10/14 03:50:40;;;;;;;14.55;3.20;;;10.90;99.90;;;;;;5071044;28;20045;-74
2023/10/14 03:53:06;;;;;;;13.65;2.20;;;10.90;99.90;;;;;;5071771;28;20044;-74
2023/10/14 03:55:32;;;;;;;6.78;1.73;;;10.90;99.90;;;;;;5072916;28;20032;-74
2023/10/14 03:58:04;;;;;;;9.25;1.75;;;10.90;99.90;;;;;;5072942;28;20083;-74
2023/10/14 04:00:37;;;;;;;7.97;1.65;;;10.80;99.90;;;;;;5070897;28;20418;-74
2023/10/14 04:03:14;;;;;;;10.35;2.30;;;10.90;99.90;;;;;;5071147;28;20119;-74
2023/10/14 04:05:53;;;;;;;7.13;2.90;;;10.80;99.90;;;;;;5071651;28;20036;-74
2023/10/14 04:08:25;;;;;;;12.40;1.70;;;10.80;99.90;;;;;;5072852;28;20059;-74
2023/10/14 04:10:55;;;;;;;9.80;1.90;;;10.80;99.90;;;;;;5071059;28;20548;-74
2023/10/14 04:13:21;;;;;;;8.13;1.85;;;10.80;99.90;;;;;;5071348;28;20102;-74
2023/10/14 04:15:52;;;;;;;8.88;1.35;;;10.80;99.90;;;;;;5054291;28;20041;-76
2023/10/14 04:18:24;;;;;;;11.27;1.98;;;10.90;99.90;;;;;;5071015;28;20071;-75
2023/10/14 04:24:12;;;;;;;15.95;2.72;;;10.90;99.90;;;;;;5038092;28;20044;-74
2023/10/14 04:26:41;;;;;;;9.00;1.98;;;10.90;99.90;;;;;;5054117;28;20357;-74
2023/10/14 04:29:18;;;;;;;13.02;1.90;;;10.90;99.90;;;;;;5054165;28;20496;-74
2023/10/14 04:31:55;;;;;;;7.40;2.45;;;11.00;99.90;;;;;;5070707;28;20047;-74
2023/10/14 04:34:22;;;;;;;12.32;1.83;;;10.80;99.90;;;;;;5070277;28;20045;-74
2023/10/14 04:36:56;;;;;;;6.55;2.10;;;10.80;99.90;;;;;;5070716;28;20048;-74
2023/10/14 04:39:27;;;;;;;12.52;2.60;;;10.80;99.90;;;;;;5070497;28;20467;-74
2023/10/14 04:42:03;;;;;;;8.02;1.70;;;10.80;99.90;;;;;;5070651;28;20076;-74
2023/10/14 04:44:37;;;;;;;8.88;2.33;;;10.80;99.90;;;;;;5070912;28;20059;-74
2023/10/14 04:47:06;;;;;;;8.48;1.95;;;10.80;99.90;;;;;;5069777;28;20115;-74
2023/10/14 04:49:37;;;;;;;9.70;1.92;;;10.80;99.90;;;;;;5070158;28;20067;-74
2023/10/14 04:52:05;;;;;;;9.77;1.70;;;10.80;99.90;;;;;;5070182;28;20032;-74
2023/10/14 04:54:34;;;;;;;17.40;2.50;;;10.90;99.90;;;;;;5053822;28;20110;-74
2023/10/14 04:57:19;;;;;;;7.57;1.75;;;10.80;99.90;;;;;;5070316;28;20123;-74
2023/10/14 04:59:44;;;;;;;9.07;2.30;;;10.90;99.90;;;;;;5070234;28;20553;-74
2023/10/14 05:02:15;;;;;;;10.23;2.05;;;10.80;99.90;;;;;;5070217;28;20052;-74
2023/10/14 05:04:41;;;;;;;6.90;1.50;;;10.80;99.90;;;;;;5070147;28;20044;-74
2023/10/14 05:07:11;;;;;;;10.00;1.55;;;10.70;99.90;;;;;;5071494;28;20086;-76
2023/10/14 05:09:39;;;;;;;10.15;1.58;;;10.70;99.90;;;;;;5070220;28;20117;-76
2023/10/14 05:12:08;;;;;;;6.75;1.50;;;10.70;99.90;;;;;;5070403;28;20416;-76
2023/10/14 05:14:36;;;;;;;15.65;2.00;;;10.70;99.90;;;;;;5071582;28;20539;-77
2023/10/14 05:17:14;;;;;;;6.35;1.70;;;10.70;99.90;;;;;;5071621;28;20481;-76
2023/10/14 05:19:44;;;;;;;8.25;2.03;;;10.60;99.90;;;;;;5071225;28;20492;-75
2023/10/14 05:22:23;;;;;;;10.80;2.28;;;10.60;99.90;;;;;;5070235;28;20071;-74
2023/10/14 05:24:52;;;;;;;10.48;2.28;;;10.50;99.90;;;;;;5070027;28;20036;-74
2023/10/14 05:27:22;;;;;;;11.57;1.60;;;10.50;99.90;;;;;;5053249;28;20495;-74
2023/10/14 05:29:50;;;;;;;9.25;1.98;;;10.50;99.90;;;;;;5070010;28;20052;-76
2023/10/14 05:32:23;;;;;;;11.50;2.30;;;10.50;99.90;;;;;;5070511;28;20531;-76
2023/10/14 05:34:50;;;;;;;12.60;2.47;;;10.50;99.90;;;;;;5074144;28;20526;-76
2023/10/14 05:37:16;;;;;;;11.35;2.90;;;10.50;99.90;;;;;;5073918;28;20052;-76
2023/10/14 05:39:43;;;;;;;8.07;2.05;;;10.40;99.90;;;;;;5073747;28;20037;-77
2023/10/14 05:42:16;;;;;;;5.55;1.75;;;10.40;99.90;;;;;;5073755;28;20044;-77
2023/10/14 05:44:49;;;;;;;13.57;2.70;;;10.40;99.90;;;;;;5075216;28;20040;-76
2023/10/14 05:47:16;;;;;;;10.73;1.50;;;10.40;99.90;;;;;;5074952;28;20045;-77
2023/10/14 05:49:43;;;;;;;8.48;1.52;;;10.40;99.90;;;;;;5075045;28;20044;-77
2023/10/14 05:52:11;;;;;;;11.00;1.75;;;10.40;99.90;;;;;;5073549;28;20037;-77
2023/10/14 05:54:37;;;;;;;12.07;2.33;;;10.40;99.90;;;;;;5074662;28;20511;-76
2023/10/14 05:57:04;;;;;;;7.35;1.67;;;10.40;99.90;;;;;;5074674;28;20051;-76
2023/10/14 05:59:32;;;;;;;15.98;2.15;;;10.30;99.90;;;;;;5072901;28;20062;-77
2023/10/14 06:01:58;;;;;;;10.48;2.05;;;10.30;99.90;;;;;;5072954;28;20569;-77
2023/10/14 06:04:24;;;;;;;8.95;1.77;;;10.30;99.90;;;;;;5073688;28;20457;-77
2023/10/14 06:06:49;;;;;;;7.07;1.25;;;10.30;99.90;;;;;;5073398;28;20071;-77
2023/10/14 06:09:17;;;;;;;11.02;2.55;;;10.30;99.90;;;;;;5073328;28;20060;-77
2023/10/14 06:11:42;;;;;;;12.02;2.10;;;10.30;99.90;;;;;;5073221;28;20048;-77
2023/10/14 06:14:09;;;;;;;8.27;1.52;;;10.30;99.90;;;;;;5073577;28;20052;-78
2023/10/14 06:16:35;;;;;;;11.60;2.08;;;10.30;99.90;;;;;;5090000;28;20456;-78
2023/10/14 06:19:04;;;;;;;8.65;1.60;;;10.30;99.90;;;;;;5094316;28;20032;-77
2023/10/14 06:21:33;;;;;;;12.65;1.92;;;10.30;99.90;;;;;;5094524;28;20051;-77
2023/10/14 06:24:04;;;;;;;13.50;1.77;;;10.40;99.90;;;;;;5094697;28;20043;-77
2023/10/14 06:26:34;;;;;;;12.90;2.20;;;10.40;99.90;;;;;;5092590;28;20044;-77
2023/10/14 06:28:59;;;;;;;12.10;2.00;;;10.40;99.90;;;;;;5086536;28;20071;-77
2023/10/14 06:31:26;;;;;;;12.20;2.92;;;10.40;99.90;;;;;;5088165;28;20400;-77
2023/10/14 06:33:54;;;;;;;8.55;2.47;;;10.50;99.90;;;;;;5092561;28;20101;-77
2023/10/14 06:36:23;;;;;;;8.48;2.28;;;10.40;99.90;;;;;;5093165;28;20073;-78
2023/10/14 06:38:52;;;;;;;9.73;1.90;;;10.40;99.90;;;;;;5093006;28;20036;-79
2023/10/14 06:41:17;;;;;;;7.35;2.38;;;10.50;99.90;;;;;;5092730;28;20040;-78
2023/10/14 06:43:47;;;;;;;10.25;2.50;;;10.50;99.90;;;;;;5092172;28;20132;-78
2023/10/14 06:46:13;;;;;;;10.13;1.83;;;10.60;99.90;;;;;;5092704;28;20043;-79
2023/10/14 06:48:38;;;;;;;18.48;2.38;;;10.60;99.90;;;;;;5093144;28;20036;-78
2023/10/14 06:51:06;;;;;;;11.35;3.47;;;10.70;99.90;;;;;;5092821;28;20521;-79
2023/10/14 06:53:31;;;;;;;8.27;1.63;;;10.70;99.90;;;;;;5093125;28;20400;-78
2023/10/14 06:55:58;;;;;;;8.25;1.80;;;10.80;99.90;;;;;;5075735;28;20044;-78
2023/10/14 06:58:27;;;;;;;17.45;3.42;;;10.90;99.90;;;;;;5092418;28;20051;-77
2023/10/14 07:00:53;;;;;;;8.45;1.92;;;11.00;99.90;;;;;;5093426;28;20048;-77
2023/10/14 07:03:18;;;;;;;12.52;1.60;;;11.10;99.90;;;;;;5092562;28;20028;-75
2023/10/14 07:06:09;;;;;;;14.18;2.35;;;11.20;99.90;;;;;;5092290;28;20043;-75
2023/10/14 07:08:36;;;;;;;13.52;2.28;;;11.30;99.90;;;;;;5092001;28;20079;-75
2023/10/14 07:11:01;;;;;;;8.15;1.70;;;11.50;99.90;;;;;;5093746;28;20114;-77
2023/10/14 07:13:27;;;;;;;9.25;2.50;;;11.50;99.90;;;;;;5092436;28;20551;-77
2023/10/14 07:15:56;;;;;;;8.30;2.03;;;11.60;99.90;;;;;;5091368;28;20036;-78
2023/10/14 07:18:24;;;;;;;10.13;1.98;;;11.70;99.90;;;;;;5106540;28;20024;-77
2023/10/14 07:21:00;;;;;;;10.57;2.42;;;11.80;99.90;;;;;;5091610;28;20040;-78
2023/10/14 07:23:26;;;;;;;8.88;1.80;;;12.00;99.90;;;;;;5092141;28;20032;-77
2023/10/14 07:25:52;;;;;;;10.90;3.20;;;12.00;99.90;;;;;;5091979;28;20035;-78
2023/10/14 07:28:18;;;;;;;11.20;2.60;;;12.10;99.90;;;;;;5092038;28;20040;-77
2023/10/14 07:30:48;;;;;;;13.50;2.97;;;12.20;99.90;;;;;;5092070;28;20661;-78
2023/10/14 07:33:14;;;;;;;15.57;2.10;;;12.30;99.90;;;;;;5092029;28;20043;-77
2023/10/14 07:35:40;;;;;;;14.63;2.67;;;12.40;99.90;;;;;;5092127;28;20044;-77
2023/10/14 07:38:06;;;;;;;18.95;3.30;;;12.60;99.90;;;;;;5091952;28;20513;-77
2023/10/14 07:40:34;;;;;;;15.98;3.03;;;12.70;99.90;;;;;;5091518;28;20032;-76
2023/10/14 07:43:13;;;;;;;11.85;2.78;;;12.70;99.90;;;;;;5091430;28;20044;-79
2023/10/14 07:45:46;;;;;;;10.77;2.03;;;12.80;99.90;;;;;;5091771;28;20044;-78
2023/10/14 07:48:13;;;;;;;14.75;2.38;;;12.90;99.90;;;;;;5091970;28;20447;-76
2023/10/14 07:50:44;;;;;;;10.07;1.83;;;13.00;99.90;;;;;;5091509;28;20086;-76
2023/10/14 07:53:14;;;;;;;16.60;2.97;;;13.10;99.90;;;;;;5091407;28;20040;-75
2023/10/14 07:55:47;;;;;;;10.18;2.00;;;13.10;99.90;;;;;;5091095;28;20040;-76
2023/10/14 07:58:14;;;;;;;9.52;2.38;;;13.20;99.90;;;;;;5091472;28;20044;-75
2023/10/14 08:00:41;;;;;;;8.95;1.80;;;13.30;99.90;;;;;;5089193;28;20040;-74
2023/10/14 08:03:09;;;;;;;9.32;2.47;;;13.20;99.90;;;;;;5080617;28;20079;-76
2023/10/14 08:05:38;;;;;;;10.02;2.65;;;13.30;99.90;;;;;;5084423;28;20086;-78
2023/10/14 08:08:13;;;;;;;8.43;1.65;;;13.30;99.90;;;;;;5070667;28;20036;-77
2023/10/14 08:10:46;;;;;;;12.15;2.22;;;13.30;99.90;;;;;;5071023;28;20381;-77
2023/10/14 08:13:22;;;;;;;8.88;1.83;;;13.40;99.90;;;;;;5079552;28;20535;-78
2023/10/14 08:15:50;;;;;;;11.65;2.05;;;13.30;99.90;;;;;;5079244;28;20048;-78
2023/10/14 08:18:16;;;;;;;6.20;2.08;;;13.40;99.90;;;;;;5071270;28;20051;-77
2023/10/14 08:20:43;;;;;;;7.13;2.00;;;13.40;99.90;;;;;;5070692;28;20116;-77
2023/10/14 08:23:10;;;;;;;9.10;2.08;;;13.50;99.90;;;;;;5071087;28;20048;-78
2023/10/14 08:25:37;;;;;;;7.35;2.00;;;13.60;99.90;;;;;;5070524;28;20043;-78
2023/10/14 08:28:06;;;;;;;9.35;2.53;;;13.60;99.90;;;;;;5071035;28;20032;-78
2023/10/14 08:30:34;;;;;;;6.18;1.58;;;13.70;99.90;;;;;;5070496;28;20048;-78
2023/10/14 08:33:01;;;;;;;13.43;2.28;;;13.70;99.90;;;;;;5070718;28;20523;-77
2023/10/14 08:35:28;;;;;;;7.45;1.92;;;13.70;99.90;;;;;;5070639;28;20123;-77
2023/10/14 08:37:55;;;;;;;11.15;1.90;;;13.80;99.90;;;;;;5070666;28;20094;-78
2023/10/14 08:40:25;;;;;;;14.88;3.10;;;13.90;99.90;;;;;;5070265;28;20041;-78
2023/10/14 08:43:07;;;;;;;6.10;2.05;;;13.90;99.90;;;;;;5070647;28;20420;-77
2023/10/14 08:45:38;;;;;;;13.95;1.90;;;13.80;99.90;;;;;;5071283;28;20040;-76
2023/10/14 08:48:05;;;;;;;7.32;1.42;;;13.80;99.90;;;;;;5078503;28;20092;-75
2023/10/14 08:50:33;;;;;;;12.68;2.60;;;13.90;99.90;;;;;;5079768;28;20059;-75
2023/10/14 08:53:03;;;;;;;17.27;2.63;;;13.90;99.90;;;;;;5079952;28;20043;-75
2023/10/14 08:55:32;;;;;;;8.35;2.53;;;13.90;99.90;;;;;;5081073;28;20506;-75
2023/10/14 08:58:05;;;;;;;6.30;1.55;;;14.10;99.90;;;;;;5090311;28;20047;-75
2023/10/14 09:00:36;;;;;;;8.90;1.92;;;14.10;99.90;;;;;;5096720;28;20444;-74
2023/10/14 09:03:02;;;;;;;11.68;2.85;;;14.10;99.90;;;;;;5098974;28;20121;-75
2023/10/14 09:05:30;;;;;;;11.10;3.22;;;14.10;99.90;;;;;;5095300;28;20036;-75
2023/10/14 09:07:57;;;;;;;7.05;1.35;;;14.20;99.90;;;;;;5099797;28;20032;-74
2023/10/14 09:10:24;;;;;;;10.35;1.85;;;14.20;99.90;;;;;;5100756;28;20032;-75
2023/10/14 09:12:57;;;;;;;9.73;2.45;;;14.20;99.90;;;;;;5102577;28;20032;-74
2023/10/14 09:15:25;;;;;;;9.43;1.90;;;14.20;99.90;;;;;;5095942;28;20032;-75
2023/10/14 09:17:55;;;;;;;9.32;1.63;;;14.30;99.90;;;;;;5102183;28;20038;-74
2023/10/14 09:20:32;;;;;;;7.43;1.88;;;14.30;99.90;;;;;;5083782;28;20035;-74
2023/10/14 09:23:31;;;;;;;8.80;1.92;;;14.20;99.90;;;;;;5101560;28;20097;-75
2023/10/14 09:26:01;;;;;;;7.82;2.17;;;14.00;99.90;;;;;;5057075;28;20122;-75
2023/10/14 09:28:35;;;;;;;6.78;2.28;;;13.90;99.90;;;;;;5102144;28;20491;-75
2023/10/14 09:31:08;;;;;;;7.13;1.63;;;13.90;99.90;;;;;;5102118;28;20490;-74
2023/10/14 09:33:35;;;;;;;8.25;1.77;;;13.80;99.90;;;;;;5102178;28;20113;-74
2023/10/14 09:36:05;;;;;;;6.97;1.75;;;14.00;99.90;;;;;;5102964;28;20035;-75
2023/10/14 09:38:32;;;;;;;8.80;1.50;;;13.90;99.90;;;;;;5103074;28;20399;-74
2023/10/14 09:41:03;;;;;;;16.40;2.70;;;14.00;99.90;;;;;;5084940;28;20040;-74
2023/10/14 09:43:30;;;;;;;9.77;1.60;;;14.00;99.90;;;;;;5101720;28;20522;-74
2023/10/14 09:45:58;;;;;;;8.48;1.67;;;14.10;99.90;;;;;;5101605;28;20044;-74
2023/10/14 09:48:25;;;;;;;13.23;1.48;;;14.10;99.90;;;;;;5102912;28;20472;-73
2023/10/14 09:50:54;;;;;;;16.98;2.25;;;14.20;99.90;;;;;;5102073;28;20093;-75
2023/10/14 09:53:26;;;;;;;8.38;1.92;;;14.00;99.90;;;;;;5099789;28;20036;-77
2023/10/14 09:55:53;;;;;;;11.70;3.17;;;14.00;99.90;;;;;;5097248;28;20032;-77
2023/10/14 09:58:23;;;;;;;7.32;1.90;;;13.80;99.90;;;;;;5096514;28;20040;-77
2023/10/14 10:00:49;;;;;;;12.13;1.60;;;13.80;99.90;;;;;;5096507;28;20183;-77
2023/10/14 10:03:15;;;;;;;7.90;1.52;;;13.80;99.90;;;;;;5097034;28;20040;-76
2023/10/14 10:06:13;;;;;;;9.70;1.55;;;13.80;99.90;;;;;;5096509;28;20083;-77
2023/10/14 10:08:48;;;;;;;8.00;2.13;;;13.70;99.90;;;;;;5096696;28;20044;-76
2023/10/14 10:11:23;;;;;;;8.95;1.60;;;13.50;99.90;;;;;;5097713;28;20492;-76
2023/10/14 10:13:52;;;;;;;3.10;1.60;;;13.40;99.90;;;;;;5096631;28;20039;-76
2023/10/14 10:16:22;;;;;;;9.70;1.77;;;13.30;99.90;;;;;;5097536;28;20411;-76
2023/10/14 10:18:58;;;;;;;6.47;1.25;;;13.30;99.90;;;;;;5095406;28;20075;-77
2023/10/14 10:21:31;;;;;;;8.40;1.95;;;13.30;99.90;;;;;;5093071;28;20507;-76
2023/10/14 10:24:09;;;;;;;8.73;2.03;;;13.30;99.90;;;;;;5093277;28;20075;-76
2023/10/14 10:27:03;;;;;;;8.43;1.58;;;13.30;99.90;;;;;;5093379;28;20407;-77
2023/10/14 10:29:35;;;;;;;6.85;1.50;;;13.10;99.90;;;;;;5093358;28;20043;-76
2023/10/14 10:32:23;;;;;;;8.77;1.63;;;13.00;99.90;;;;;;5076212;28;20040;-76
2023/10/14 10:35:08;;;;;;;4.13;1.20;;;12.90;99.90;;;;;;5093302;28;20069;-76
2023/10/14 10:37:42;;;;;;;8.30;1.65;;;12.90;99.90;;;;;;5076227;28;20040;-76
2023/10/14 10:40:11;;;;;;;;;;;13.00;99.90;;;;;;5093171;28;20043;-77
2023/10/14 10:42:56;;;;;;;8.02;1.35;;;13.00;99.90;;;;;;5092978;28;19920;-77
2023/10/14 10:45:30;;;;;;;5.55;1.85;;;13.10;99.90;;;;;;5093882;28;20032;-77
2023/10/14 10:47:59;;;;;;;5.47;1.33;;;13.20;99.90;;;;;;5093401;28;20036;-79
2023/10/14 10:50:34;;;;;;;5.72;1.73;;;13.40;99.90;;;;;;5099841;28;20068;-81
2023/10/14 10:53:10;;;;;;;5.22;1.17;;;13.50;99.90;;;;;;5102149;28;20411;-80
2023/10/14 10:55:47;;;;;;;9.50;1.38;;;13.60;99.90;;;;;;5100484;28;20119;-81
2023/10/14 10:58:14;;;;;;;8.25;1.58;;;13.70;99.90;;;;;;5100308;28;20511;-80
2023/10/14 11:00:42;;;;;;;13.70;1.98;;;13.70;99.90;;;;;;5099361;28;20032;-81
2023/10/14 11:03:13;;;;;;;5.32;1.45;;;13.80;99.90;;;;;;5097934;28;20048;-80
2023/10/14 11:05:41;;;;;;;8.73;0.95;;;13.80;99.90;;;;;;5099102;28;20488;-80
2023/10/14 11:08:07;;;;;;;8.38;1.23;;;13.80;99.90;;;;;;5097460;28;20036;-80
2023/10/14 11:10:38;;;;;;;5.47;0.88;;;13.80;99.90;;;;;;5095244;28;20039;-79
2023/10/14 11:13:05;;;;;;;5.53;1.70;;;13.90;99.90;;;;;;5096170;28;20048;-80
2023/10/14 11:15:34;;;;;;;8.32;1.20;;;13.90;99.90;;;;;;5099158;28;20044;-80
2023/10/14 11:18:01;;;;;;;10.50;1.42;;;14.10;99.90;;;;;;5101261;28;20048;-79
2023/10/14 11:20:31;;;;;;;3.63;0.88;;;14.10;99.90;;;;;;5099263;28;20086;-79
2023/10/14 11:22:58;;;;;;;6.22;1.30;;;14.10;99.90;;;;;;5088318;28;20048;-78
2023/10/14 11:25:24;;;;;;;7.45;1.50;;;13.80;99.90;;;;;;5069906;28;20050;-77
2023/10/14 11:27:50;;;;;;;6.47;1.52;;;13.60;99.90;;;;;;5094565;28;20117;-78
2023/10/14 11:30:17;;;;;;;10.68;1.55;;;13.40;99.90;;;;;;5095531;28;20036;-78
2023/10/14 11:32:50;;;;;;;6.82;1.65;;;13.20;99.90;;;;;;5085784;28;20105;-78
2023/10/14 11:35:18;;;;;;;8.57;2.13;;;13.00;99.90;;;;;;5081939;28;20080;-78
2023/10/14 11:38:00;;;;;;;9.48;1.58;;;12.80;99.90;;;;;;5083530;28;20116;-79
2023/10/14 11:40:36;;;;;;;7.45;1.60;;;12.80;99.90;;;;;;5082401;28;20047;-78
2023/10/14 11:43:03;;;;;;;11.90;2.97;;;12.60;99.90;;;;;;5082516;28;20132;-78
2023/10/14 11:45:31;;;;;;;16.92;2.40;;;12.60;99.90;;;;;;5058747;28;20392;-79
2023/10/14 11:47:59;;;;;;;7.13;1.42;;;12.60;99.90;;;;;;5074870;28;20029;-79
2023/10/14 11:50:26;;;;;;;8.02;1.75;;;12.60;99.90;;;;;;5085451;28;20036;-79
2023/10/14 11:52:57;;;;;;;7.20;1.63;;;12.50;99.90;;;;;;5094554;28;20043;-80
2023/10/14 11:55:25;;;;;;;8.90;1.70;;;12.50;99.90;;;;;;5094761;28;20040;-79
2023/10/14 11:57:53;;;;;;;10.65;2.08;;;12.50;99.90;;;;;;5094058;28;20055;-77
2023/10/14 12:00:20;;;;;;;10.30;3.05;;;12.40;99.90;;;;;;5093052;28;20035;-79
2023/10/14 12:02:50;;;;;;;6.60;1.85;;;12.40;99.90;;;;;;5097933;28;20401;-76
2023/10/14 12:05:16;;;;;;;10.88;2.45;;;12.50;99.90;;;;;;5092305;28;20028;-77
2023/10/14 12:07:43;;;;;;;12.43;1.90;;;12.60;99.90;;;;;;5090502;28;20072;-76
2023/10/14 12:10:09;;;;;;;9.40;3.17;;;12.60;99.90;;;;;;5091262;28;20149;-77
2023/10/14 12:12:38;;;;;;;11.88;2.78;;;12.70;99.90;;;;;;5091410;28;20040;-77
2023/10/14 12:15:06;;;;;;;13.40;2.45;;;12.80;99.90;;;;;;5091314;28;20044;-77
2023/10/14 12:17:38;;;;;;;11.23;2.88;;;12.90;99.90;;;;;;5091144;28;20048;-77
2023/10/14 12:20:05;;;;;;;8.73;1.77;;;13.00;99.90;;;;;;5090822;28;20411;-77
2023/10/14 12:22:32;;;;;;;9.18;2.15;;;13.10;99.90;;;;;;5091126;28;20135;-77
2023/10/14 12:24:58;;;;;;;11.02;2.30;;;13.20;99.90;;;;;;5091152;28;20043;-77
2023/10/14 12:27:25;;;;;;;15.75;3.40;;;13.20;99.90;;;;;;5090772;28;20114;-77
2023/10/14 12:29:52;;;;;;;11.18;2.53;;;13.30;99.90;;;;;;5090931;28;20055;-77
2023/10/14 12:32:18;;;;;;;7.70;2.47;;;13.30;99.90;;;;;;5091066;28;20051;-77
2023/10/14 12:34:52;;;;;;;12.65;2.50;;;13.30;99.90;;;;;;5090915;28;20119;-77
2023/10/14 12:37:18;;;;;;;12.65;2.40;;;13.20;99.90;;;;;;5090894;28;20070;-77
2023/10/14 12:40:11;;;;;;;8.57;2.17;;;13.00;99.90;;;;;;5090712;28;20071;-77
2023/10/14 12:42:47;;;;;;;12.27;2.67;;;12.90;99.90;;;;;;5090080;28;20044;-77
2023/10/14 12:45:14;;;;;;;15.35;3.03;;;13.00;99.90;;;;;;5090993;28;20289;-77
2023/10/14 12:47:46;;;;;;;11.10;1.85;;;13.00;99.90;;;;;;5091114;28;20513;-77
2023/10/14 12:50:13;;;;;;;10.32;1.95;;;13.00;99.90;;;;;;5090401;28;20046;-74
2023/10/14 12:52:40;;;;;;;10.30;1.80;;;13.10;99.90;;;;;;5090820;28;20054;-74
2023/10/14 12:55:17;;;;;;;4.22;1.23;;;13.10;99.90;;;;;;5090683;28;20048;-75
2023/10/14 12:57:46;;;;;;;9.85;2.28;;;13.20;99.90;;;;;;5090623;28;20051;-75
2023/10/14 13:00:18;;;;;;;7.22;1.58;;;13.20;99.90;;;;;;5090202;28;20068;-75
2023/10/14 13:02:45;;;;;;;11.32;2.78;;;13.20;99.90;;;;;;5090468;28;20048;-75
2023/10/14 13:05:18;;;;;;;11.30;1.80;;;13.30;99.90;;;;;;5090468;28;20487;-74
2023/10/14 13:07:53;;;;;;;;;;;13.20;99.90;;;;;;5091154;28;20032;-74
2023/10/14 13:10:20;;;;;;;7.55;2.50;;;13.10;99.90;;;;;;5090544;28;19923;-75
2023/10/14 13:12:53;;;;;;;5.63;2.20;;;13.10;99.90;;;;;;5090509;28;20499;-74
2023/10/14 13:15:30;;;;;;;6.53;1.92;;;13.10;99.90;;;;;;5090354;28;20059;-74
2023/10/14 13:17:59;;;;;;;7.88;1.77;;;12.90;99.90;;;;;;5090426;28;20050;-75
2023/10/14 13:20:28;;;;;;;8.85;2.25;;;12.80;99.90;;;;;;5090007;28;20040;-75
2023/10/14 13:23:04;;;;;;;7.82;1.50;;;12.80;99.90;;;;;;5090316;28;20062;-74
2023/10/14 13:25:42;;;;;;;7.45;1.10;;;12.70;99.90;;;;;;5090417;28;20131;-75
2023/10/14 13:28:09;;;;;;;6.55;1.50;;;12.40;99.90;;;;;;5090315;28;20043;-74
2023/10/14 13:30:45;;;;;;;6.07;1.13;;;12.30;99.90;;;;;;5091502;28;20040;-74